sensor_id;sensor_type;location;lat;lon;timestamp;P1;durP1;ratioP1;P2;durP2;ratioP2
41061;SDS011;26812;42.662;23.352;2022-11-11T00:01:55;57.72;;;33.22;;
41061;SDS011;26812;42.662;23.352;2022-11-11T00:04:20;58.00;;;33.92;;
41061;SDS011;26812;42.662;23.352;2022-11-11T00:06:46;58.97;;;33.50;;
41061;SDS011;26812;42.662;23.352;2022-11-11T00:09:11;61.90;;;36.67;;
41061;SDS011;26812;42.662;23.352;2022-11-11T00:11:37;58.95;;;35.08;;
41061;SDS011;26812;42.662;23.352;2022-11-11T00:14:02;53.67;;;33.90;;
41061;SDS011;26812;42.662;23.352;2022-11-11T00:16:27;56.08;;;34.60;;
41061;SDS011;26812;42.662;23.352;2022-11-11T00:19:19;50.60;;;30.85;;
41061;SDS011;26812;42.662;23.352;2022-11-11T00:22:03;56.95;;;35.08;;
41061;SDS011;26812;42.662;23.352;2022-11-11T00:24:47;57.05;;;35.15;;
41061;SDS011;26812;42.662;23.352;2022-11-11T00:27:31;57.28;;;36.20;;
41061;SDS011;26812;42.662;23.352;2022-11-11T00:29:57;59.90;;;37.17;;
41061;SDS011;26812;42.662;23.352;2022-11-11T00:32:22;71.18;;;40.30;;
41061;SDS011;26812;42.662;23.352;2022-11-11T00:34:49;69.85;;;39.85;;
41061;SDS011;26812;42.662;23.352;2022-11-11T00:37:33;75.72;;;40.75;;
41061;SDS011;26812;42.662;23.352;2022-11-11T00:39:59;72.18;;;41.38;;
41061;SDS011;26812;42.662;23.352;2022-11-11T00:42:25;65.55;;;38.53;;
41061;SDS011;26812;42.662;23.352;2022-11-11T00:44:51;62.45;;;34.53;;
41061;SDS011;26812;42.662;23.352;2022-11-11T00:47:16;59.05;;;34.78;;
41061;SDS011;26812;42.662;23.352;2022-11-11T00:50:11;49.92;;;30.67;;
41061;SDS011;26812;42.662;23.352;2022-11-11T00:53:01;53.72;;;30.10;;
41061;SDS011;26812;42.662;23.352;2022-11-11T00:55:38;45.33;;;28.55;;
41061;SDS011;26812;42.662;23.352;2022-11-11T00:58:03;46.10;;;27.98;;
41061;SDS011;26812;42.662;23.352;2022-11-11T01:00:28;46.15;;;27.52;;
41061;SDS011;26812;42.662;23.352;2022-11-11T01:02:55;49.42;;;29.63;;
41061;SDS011;26812;42.662;23.352;2022-11-11T01:05:21;43.35;;;27.30;;
41061;SDS011;26812;42.662;23.352;2022-11-11T01:07:47;44.80;;;25.10;;
41061;SDS011;26812;42.662;23.352;2022-11-11T01:10:14;46.22;;;26.52;;
41061;SDS011;26812;42.662;23.352;2022-11-11T01:15:47;43.95;;;24.48;;
41061;SDS011;26812;42.662;23.352;2022-11-11T01:18:18;41.72;;;23.15;;
41061;SDS011;26812;42.662;23.352;2022-11-11T01:20:47;41.65;;;23.40;;
41061;SDS011;26812;42.662;23.352;2022-11-11T01:23:21;41.50;;;24.10;;
41061;SDS011;26812;42.662;23.352;2022-11-11T01:25:46;41.92;;;23.70;;
41061;SDS011;26812;42.662;23.352;2022-11-11T01:28:12;44.58;;;24.92;;
41061;SDS011;26812;42.662;23.352;2022-11-11T01:30:37;42.30;;;22.70;;
41061;SDS011;26812;42.662;23.352;2022-11-11T01:33:03;41.08;;;23.75;;
41061;SDS011;26812;42.662;23.352;2022-11-11T01:35:28;45.78;;;23.48;;
41061;SDS011;26812;42.662;23.352;2022-11-11T01:37:54;47.85;;;26.58;;
41061;SDS011;26812;42.662;23.352;2022-11-11T01:40:21;40.03;;;23.67;;
41061;SDS011;26812;42.662;23.352;2022-11-11T01:42:50;38.95;;;21.98;;
41061;SDS011;26812;42.662;23.352;2022-11-11T01:45:48;36.30;;;21.63;;
41061;SDS011;26812;42.662;23.352;2022-11-11T01:54:07;39.22;;;22.10;;
41061;SDS011;26812;42.662;23.352;2022-11-11T01:56:40;45.40;;;23.55;;
41061;SDS011;26812;42.662;23.352;2022-11-11T01:59:10;36.22;;;22.60;;
41061;SDS011;26812;42.662;23.352;2022-11-11T02:01:41;41.03;;;23.05;;
41061;SDS011;26812;42.662;23.352;2022-11-11T02:04:08;37.67;;;23.33;;
41061;SDS011;26812;42.662;23.352;2022-11-11T02:06:54;40.50;;;23.15;;
41061;SDS011;26812;42.662;23.352;2022-11-11T02:09:22;37.70;;;22.60;;
41061;SDS011;26812;42.662;23.352;2022-11-11T02:11:49;40.80;;;23.00;;
41061;SDS011;26812;42.662;23.352;2022-11-11T02:14:38;45.85;;;23.92;;
41061;SDS011;26812;42.662;23.352;2022-11-11T02:17:08;44.53;;;24.83;;
41061;SDS011;26812;42.662;23.352;2022-11-11T02:22:09;43.40;;;23.92;;
41061;SDS011;26812;42.662;23.352;2022-11-11T02:24:41;45.63;;;24.83;;
41061;SDS011;26812;42.662;23.352;2022-11-11T02:27:07;44.88;;;24.83;;
41061;SDS011;26812;42.662;23.352;2022-11-11T02:29:36;41.45;;;24.13;;
41061;SDS011;26812;42.662;23.352;2022-11-11T02:32:02;45.03;;;24.30;;
41061;SDS011;26812;42.662;23.352;2022-11-11T02:34:29;42.50;;;24.00;;
41061;SDS011;26812;42.662;23.352;2022-11-11T02:36:56;42.92;;;24.13;;
41061;SDS011;26812;42.662;23.352;2022-11-11T02:39:23;42.03;;;23.55;;
41061;SDS011;26812;42.662;23.352;2022-11-11T02:41:50;44.05;;;26.45;;
41061;SDS011;26812;42.662;23.352;2022-11-11T02:44:21;45.58;;;24.13;;
41061;SDS011;26812;42.662;23.352;2022-11-11T02:46:48;45.65;;;26.45;;
41061;SDS011;26812;42.662;23.352;2022-11-11T02:49:13;35.50;;;22.92;;
41061;SDS011;26812;42.662;23.352;2022-11-11T02:51:39;41.42;;;24.63;;
41061;SDS011;26812;42.662;23.352;2022-11-11T02:54:04;39.90;;;24.02;;
41061;SDS011;26812;42.662;23.352;2022-11-11T02:56:29;41.00;;;22.58;;
41061;SDS011;26812;42.662;23.352;2022-11-11T02:59:14;44.80;;;24.58;;
41061;SDS011;26812;42.662;23.352;2022-11-11T03:01:39;41.70;;;24.17;;
41061;SDS011;26812;42.662;23.352;2022-11-11T03:04:05;50.22;;;28.70;;
41061;SDS011;26812;42.662;23.352;2022-11-11T03:06:31;52.88;;;31.30;;
41061;SDS011;26812;42.662;23.352;2022-11-11T03:08:56;51.42;;;33.33;;
41061;SDS011;26812;42.662;23.352;2022-11-11T03:11:22;57.97;;;33.85;;
41061;SDS011;26812;42.662;23.352;2022-11-11T03:13:54;51.78;;;32.35;;
41061;SDS011;26812;42.662;23.352;2022-11-11T03:16:20;54.35;;;35.15;;
41061;SDS011;26812;42.662;23.352;2022-11-11T03:19:04;55.72;;;32.97;;
41061;SDS011;26812;42.662;23.352;2022-11-11T03:21:29;56.75;;;33.63;;
41061;SDS011;26812;42.662;23.352;2022-11-11T03:23:54;55.65;;;33.38;;
41061;SDS011;26812;42.662;23.352;2022-11-11T03:26:20;49.70;;;32.97;;
41061;SDS011;26812;42.662;23.352;2022-11-11T03:28:45;57.20;;;33.13;;
41061;SDS011;26812;42.662;23.352;2022-11-11T03:31:10;53.80;;;32.83;;
41061;SDS011;26812;42.662;23.352;2022-11-11T03:33:36;59.13;;;33.40;;
41061;SDS011;26812;42.662;23.352;2022-11-11T03:36:02;56.80;;;33.53;;
41061;SDS011;26812;42.662;23.352;2022-11-11T03:38:27;57.80;;;33.85;;
41061;SDS011;26812;42.662;23.352;2022-11-11T03:40:54;54.42;;;32.45;;
41061;SDS011;26812;42.662;23.352;2022-11-11T03:43:21;61.95;;;33.95;;
41061;SDS011;26812;42.662;23.352;2022-11-11T03:45:48;54.83;;;32.38;;
41061;SDS011;26812;42.662;23.352;2022-11-11T03:48:14;60.58;;;33.67;;
41061;SDS011;26812;42.662;23.352;2022-11-11T03:50:40;52.90;;;31.40;;
41061;SDS011;26812;42.662;23.352;2022-11-11T03:53:06;54.30;;;31.15;;
41061;SDS011;26812;42.662;23.352;2022-11-11T03:55:31;54.35;;;32.22;;
41061;SDS011;26812;42.662;23.352;2022-11-11T03:57:57;57.10;;;30.20;;
41061;SDS011;26812;42.662;23.352;2022-11-11T04:00:23;59.03;;;33.03;;
41061;SDS011;26812;42.662;23.352;2022-11-11T04:02:50;55.55;;;33.55;;
41061;SDS011;26812;42.662;23.352;2022-11-11T04:05:34;51.20;;;30.65;;
41061;SDS011;26812;42.662;23.352;2022-11-11T04:08:19;45.13;;;28.10;;
41061;SDS011;26812;42.662;23.352;2022-11-11T04:11:08;49.67;;;28.70;;
41061;SDS011;26812;42.662;23.352;2022-11-11T04:13:36;52.15;;;30.13;;
41061;SDS011;26812;42.662;23.352;2022-11-11T04:16:22;46.75;;;30.00;;
41061;SDS011;26812;42.662;23.352;2022-11-11T04:18:48;50.25;;;29.00;;
41061;SDS011;26812;42.662;23.352;2022-11-11T04:21:32;49.22;;;27.27;;
41061;SDS011;26812;42.662;23.352;2022-11-11T04:26:54;45.63;;;26.70;;
41061;SDS011;26812;42.662;23.352;2022-11-11T04:29:21;45.95;;;28.27;;
41061;SDS011;26812;42.662;23.352;2022-11-11T04:31:53;50.60;;;28.65;;
41061;SDS011;26812;42.662;23.352;2022-11-11T04:34:41;48.33;;;27.35;;
41061;SDS011;26812;42.662;23.352;2022-11-11T04:37:08;45.95;;;25.63;;
41061;SDS011;26812;42.662;23.352;2022-11-11T04:39:34;45.17;;;24.95;;
41061;SDS011;26812;42.662;23.352;2022-11-11T04:42:17;50.28;;;24.52;;
41061;SDS011;26812;42.662;23.352;2022-11-11T04:44:43;42.13;;;23.83;;
41061;SDS011;26812;42.662;23.352;2022-11-11T04:47:27;41.53;;;24.08;;
41061;SDS011;26812;42.662;23.352;2022-11-11T04:49:52;42.35;;;24.15;;
41061;SDS011;26812;42.662;23.352;2022-11-11T04:52:18;37.70;;;22.70;;
41061;SDS011;26812;42.662;23.352;2022-11-11T04:54:53;42.78;;;24.95;;
41061;SDS011;26812;42.662;23.352;2022-11-11T04:57:38;35.80;;;21.50;;
41061;SDS011;26812;42.662;23.352;2022-11-11T05:00:05;40.35;;;22.33;;
41061;SDS011;26812;42.662;23.352;2022-11-11T05:02:31;38.25;;;22.40;;
41061;SDS011;26812;42.662;23.352;2022-11-11T05:05:15;35.60;;;22.83;;
41061;SDS011;26812;42.662;23.352;2022-11-11T05:07:41;36.08;;;19.67;;
41061;SDS011;26812;42.662;23.352;2022-11-11T05:10:24;31.75;;;20.50;;
41061;SDS011;26812;42.662;23.352;2022-11-11T05:12:50;35.33;;;21.88;;
41061;SDS011;26812;42.662;23.352;2022-11-11T05:15:15;35.67;;;20.63;;
41061;SDS011;26812;42.662;23.352;2022-11-11T05:17:59;32.13;;;19.55;;
41061;SDS011;26812;42.662;23.352;2022-11-11T05:20:47;33.40;;;20.10;;
41061;SDS011;26812;42.662;23.352;2022-11-11T05:23:32;31.55;;;20.15;;
41061;SDS011;26812;42.662;23.352;2022-11-11T05:26:16;34.53;;;18.38;;
41061;SDS011;26812;42.662;23.352;2022-11-11T05:28:41;32.42;;;21.05;;
41061;SDS011;26812;42.662;23.352;2022-11-11T05:31:06;31.40;;;19.27;;
41061;SDS011;26812;42.662;23.352;2022-11-11T05:33:32;29.95;;;18.40;;
41061;SDS011;26812;42.662;23.352;2022-11-11T05:35:57;32.92;;;18.52;;
41061;SDS011;26812;42.662;23.352;2022-11-11T05:38:23;29.50;;;17.85;;
41061;SDS011;26812;42.662;23.352;2022-11-11T05:40:48;32.35;;;18.58;;
41061;SDS011;26812;42.662;23.352;2022-11-11T05:43:13;29.05;;;17.33;;
41061;SDS011;26812;42.662;23.352;2022-11-11T05:45:42;27.02;;;16.48;;
41061;SDS011;26812;42.662;23.352;2022-11-11T05:48:14;27.33;;;16.55;;
41061;SDS011;26812;42.662;23.352;2022-11-11T05:50:39;27.25;;;16.38;;
41061;SDS011;26812;42.662;23.352;2022-11-11T05:53:06;26.33;;;17.05;;
41061;SDS011;26812;42.662;23.352;2022-11-11T05:55:32;29.02;;;16.63;;
41061;SDS011;26812;42.662;23.352;2022-11-11T05:57:57;30.10;;;17.90;;
41061;SDS011;26812;42.662;23.352;2022-11-11T06:00:30;25.77;;;15.52;;
41061;SDS011;26812;42.662;23.352;2022-11-11T06:03:02;30.27;;;16.65;;
41061;SDS011;26812;42.662;23.352;2022-11-11T06:05:30;29.08;;;17.00;;
41061;SDS011;26812;42.662;23.352;2022-11-11T06:07:55;25.90;;;16.33;;
41061;SDS011;26812;42.662;23.352;2022-11-11T06:10:20;27.08;;;17.15;;
41061;SDS011;26812;42.662;23.352;2022-11-11T06:13:01;26.65;;;15.90;;
41061;SDS011;26812;42.662;23.352;2022-11-11T06:15:29;30.33;;;17.42;;
41061;SDS011;26812;42.662;23.352;2022-11-11T06:17:58;28.13;;;18.30;;
41061;SDS011;26812;42.662;23.352;2022-11-11T06:20:24;27.38;;;16.00;;
41061;SDS011;26812;42.662;23.352;2022-11-11T06:22:49;25.75;;;16.33;;
41061;SDS011;26812;42.662;23.352;2022-11-11T06:25:21;31.13;;;16.77;;
41061;SDS011;26812;42.662;23.352;2022-11-11T06:28:16;29.77;;;16.40;;
41061;SDS011;26812;42.662;23.352;2022-11-11T06:30:42;33.28;;;19.15;;
41061;SDS011;26812;42.662;23.352;2022-11-11T06:33:07;30.15;;;17.88;;
41061;SDS011;26812;42.662;23.352;2022-11-11T06:35:37;30.52;;;17.38;;
41061;SDS011;26812;42.662;23.352;2022-11-11T06:38:05;33.15;;;18.92;;
41061;SDS011;26812;42.662;23.352;2022-11-11T06:40:31;28.33;;;17.90;;
41061;SDS011;26812;42.662;23.352;2022-11-11T06:42:57;31.02;;;17.88;;
41061;SDS011;26812;42.662;23.352;2022-11-11T06:45:24;28.02;;;17.08;;
41061;SDS011;26812;42.662;23.352;2022-11-11T06:47:50;29.38;;;17.83;;
41061;SDS011;26812;42.662;23.352;2022-11-11T06:50:16;31.20;;;18.13;;
41061;SDS011;26812;42.662;23.352;2022-11-11T06:52:42;29.33;;;16.50;;
41061;SDS011;26812;42.662;23.352;2022-11-11T06:55:07;31.38;;;16.52;;
41061;SDS011;26812;42.662;23.352;2022-11-11T06:57:33;29.50;;;17.50;;
41061;SDS011;26812;42.662;23.352;2022-11-11T06:59:58;28.85;;;18.40;;
41061;SDS011;26812;42.662;23.352;2022-11-11T07:02:24;27.35;;;16.52;;
41061;SDS011;26812;42.662;23.352;2022-11-11T07:04:49;28.38;;;17.77;;
41061;SDS011;26812;42.662;23.352;2022-11-11T07:07:14;31.00;;;17.52;;
41061;SDS011;26812;42.662;23.352;2022-11-11T07:09:41;27.80;;;17.38;;
41061;SDS011;26812;42.662;23.352;2022-11-11T07:12:07;29.15;;;17.48;;
41061;SDS011;26812;42.662;23.352;2022-11-11T07:14:39;31.50;;;18.85;;
41061;SDS011;26812;42.662;23.352;2022-11-11T07:17:04;25.88;;;16.88;;
41061;SDS011;26812;42.662;23.352;2022-11-11T07:19:30;31.17;;;16.25;;
41061;SDS011;26812;42.662;23.352;2022-11-11T07:21:55;25.23;;;15.70;;
41061;SDS011;26812;42.662;23.352;2022-11-11T07:24:21;25.25;;;15.63;;
41061;SDS011;26812;42.662;23.352;2022-11-11T07:26:46;26.25;;;16.10;;
41061;SDS011;26812;42.662;23.352;2022-11-11T07:29:12;25.58;;;15.55;;
41061;SDS011;26812;42.662;23.352;2022-11-11T07:31:39;23.90;;;15.40;;
41061;SDS011;26812;42.662;23.352;2022-11-11T07:34:05;23.77;;;14.77;;
41061;SDS011;26812;42.662;23.352;2022-11-11T07:36:30;24.88;;;14.75;;
41061;SDS011;26812;42.662;23.352;2022-11-11T07:38:55;26.08;;;15.63;;
41061;SDS011;26812;42.662;23.352;2022-11-11T07:41:21;30.50;;;15.95;;
41061;SDS011;26812;42.662;23.352;2022-11-11T07:43:46;31.83;;;15.43;;
41061;SDS011;26812;42.662;23.352;2022-11-11T07:46:12;28.13;;;15.68;;
41061;SDS011;26812;42.662;23.352;2022-11-11T07:48:38;24.42;;;14.90;;
41061;SDS011;26812;42.662;23.352;2022-11-11T07:51:03;28.05;;;15.55;;
41061;SDS011;26812;42.662;23.352;2022-11-11T07:53:30;28.05;;;16.63;;
41061;SDS011;26812;42.662;23.352;2022-11-11T07:55:55;27.92;;;15.90;;
41061;SDS011;26812;42.662;23.352;2022-11-11T07:58:21;21.65;;;14.10;;
41061;SDS011;26812;42.662;23.352;2022-11-11T08:00:46;24.45;;;16.05;;
41061;SDS011;26812;42.662;23.352;2022-11-11T08:03:11;25.90;;;14.07;;
41061;SDS011;26812;42.662;23.352;2022-11-11T08:05:37;26.00;;;15.15;;
41061;SDS011;26812;42.662;23.352;2022-11-11T08:08:05;24.48;;;14.93;;
41061;SDS011;26812;42.662;23.352;2022-11-11T08:10:32;23.83;;;13.95;;
41061;SDS011;26812;42.662;23.352;2022-11-11T08:12:59;25.83;;;14.60;;
41061;SDS011;26812;42.662;23.352;2022-11-11T08:15:43;27.80;;;15.73;;
41061;SDS011;26812;42.662;23.352;2022-11-11T08:18:08;24.30;;;13.70;;
41061;SDS011;26812;42.662;23.352;2022-11-11T08:20:34;20.85;;;13.60;;
41061;SDS011;26812;42.662;23.352;2022-11-11T08:23:00;28.42;;;15.43;;
41061;SDS011;26812;42.662;23.352;2022-11-11T08:25:28;24.80;;;13.57;;
41061;SDS011;26812;42.662;23.352;2022-11-11T08:27:58;20.92;;;13.73;;
41061;SDS011;26812;42.662;23.352;2022-11-11T08:30:25;24.02;;;14.27;;
41061;SDS011;26812;42.662;23.352;2022-11-11T08:32:55;25.38;;;14.55;;
41061;SDS011;26812;42.662;23.352;2022-11-11T08:35:22;24.67;;;14.38;;
41061;SDS011;26812;42.662;23.352;2022-11-11T08:37:48;25.35;;;14.52;;
41061;SDS011;26812;42.662;23.352;2022-11-11T08:40:14;25.10;;;14.10;;
41061;SDS011;26812;42.662;23.352;2022-11-11T08:42:40;28.63;;;14.43;;
41061;SDS011;26812;42.662;23.352;2022-11-11T08:45:06;23.25;;;14.52;;
41061;SDS011;26812;42.662;23.352;2022-11-11T08:47:32;24.70;;;13.90;;
41061;SDS011;26812;42.662;23.352;2022-11-11T08:49:57;17.25;;;11.98;;
41061;SDS011;26812;42.662;23.352;2022-11-11T08:52:23;25.15;;;14.00;;
41061;SDS011;26812;42.662;23.352;2022-11-11T08:54:48;20.88;;;14.27;;
41061;SDS011;26812;42.662;23.352;2022-11-11T08:57:13;21.75;;;13.10;;
41061;SDS011;26812;42.662;23.352;2022-11-11T08:59:39;18.38;;;12.23;;
41061;SDS011;26812;42.662;23.352;2022-11-11T09:02:04;20.58;;;12.93;;
41061;SDS011;26812;42.662;23.352;2022-11-11T09:04:30;24.00;;;14.27;;
41061;SDS011;26812;42.662;23.352;2022-11-11T09:06:55;17.33;;;12.43;;
41061;SDS011;26812;42.662;23.352;2022-11-11T09:09:20;20.10;;;11.40;;
41061;SDS011;26812;42.662;23.352;2022-11-11T09:11:46;20.55;;;12.05;;
41061;SDS011;26812;42.662;23.352;2022-11-11T09:14:11;22.17;;;12.90;;
41061;SDS011;26812;42.662;23.352;2022-11-11T09:16:37;18.13;;;11.68;;
41061;SDS011;26812;42.662;23.352;2022-11-11T09:19:02;18.05;;;10.95;;
41061;SDS011;26812;42.662;23.352;2022-11-11T09:21:28;17.42;;;11.75;;
41061;SDS011;26812;42.662;23.352;2022-11-11T09:23:53;16.02;;;11.30;;
41061;SDS011;26812;42.662;23.352;2022-11-11T09:26:19;17.70;;;11.07;;
41061;SDS011;26812;42.662;23.352;2022-11-11T09:28:44;16.10;;;11.23;;
41061;SDS011;26812;42.662;23.352;2022-11-11T09:31:10;18.20;;;10.68;;
41061;SDS011;26812;42.662;23.352;2022-11-11T09:33:35;21.05;;;11.90;;
41061;SDS011;26812;42.662;23.352;2022-11-11T09:36:01;16.17;;;11.73;;
41061;SDS011;26812;42.662;23.352;2022-11-11T09:38:26;15.77;;;10.50;;
41061;SDS011;26812;42.662;23.352;2022-11-11T09:43:23;15.88;;;9.60;;
41061;SDS011;26812;42.662;23.352;2022-11-11T09:51:15;13.20;;;8.38;;
41061;SDS011;26812;42.662;23.352;2022-11-11T09:54:02;14.35;;;9.20;;
41061;SDS011;26812;42.662;23.352;2022-11-11T09:56:34;12.32;;;8.32;;
41061;SDS011;26812;42.662;23.352;2022-11-11T09:59:11;11.82;;;9.07;;
41061;SDS011;26812;42.662;23.352;2022-11-11T10:01:41;12.48;;;8.73;;
41061;SDS011;26812;42.662;23.352;2022-11-11T10:06:42;13.65;;;8.13;;
41061;SDS011;26812;42.662;23.352;2022-11-11T10:12:11;11.48;;;8.80;;
41061;SDS011;26812;42.662;23.352;2022-11-11T10:14:43;14.77;;;9.55;;
41061;SDS011;26812;42.662;23.352;2022-11-11T10:22:41;11.57;;;8.23;;
41061;SDS011;26812;42.662;23.352;2022-11-11T10:27:38;13.57;;;8.82;;
41061;SDS011;26812;42.662;23.352;2022-11-11T10:30:19;9.85;;;7.13;;
41061;SDS011;26812;42.662;23.352;2022-11-11T10:33:00;11.93;;;8.88;;
41061;SDS011;26812;42.662;23.352;2022-11-11T10:35:28;12.23;;;8.73;;
41061;SDS011;26812;42.662;23.352;2022-11-11T10:40:36;12.85;;;8.35;;
41061;SDS011;26812;42.662;23.352;2022-11-11T10:49:15;11.60;;;8.02;;
41061;SDS011;26812;42.662;23.352;2022-11-11T10:51:51;10.65;;;8.20;;
41061;SDS011;26812;42.662;23.352;2022-11-11T10:54:40;12.05;;;8.52;;
41061;SDS011;26812;42.662;23.352;2022-11-11T10:57:13;10.52;;;8.43;;
41061;SDS011;26812;42.662;23.352;2022-11-11T10:59:50;11.85;;;9.23;;
41061;SDS011;26812;42.662;23.352;2022-11-11T11:02:29;12.52;;;8.38;;
41061;SDS011;26812;42.662;23.352;2022-11-11T11:05:02;11.57;;;8.25;;
41061;SDS011;26812;42.662;23.352;2022-11-11T11:07:45;11.45;;;7.70;;
41061;SDS011;26812;42.662;23.352;2022-11-11T11:10:15;11.32;;;8.82;;
41061;SDS011;26812;42.662;23.352;2022-11-11T11:12:51;11.15;;;7.72;;
41061;SDS011;26812;42.662;23.352;2022-11-11T11:15:46;11.73;;;9.07;;
41061;SDS011;26812;42.662;23.352;2022-11-11T11:18:18;10.52;;;7.72;;
41061;SDS011;26812;42.662;23.352;2022-11-11T11:20:54;16.23;;;8.65;;
41061;SDS011;26812;42.662;23.352;2022-11-11T11:26:08;9.48;;;7.35;;
41061;SDS011;26812;42.662;23.352;2022-11-11T11:28:51;9.60;;;7.22;;
41061;SDS011;26812;42.662;23.352;2022-11-11T11:31:17;11.13;;;7.20;;
41061;SDS011;26812;42.662;23.352;2022-11-11T11:33:59;10.50;;;7.18;;
41061;SDS011;26812;42.662;23.352;2022-11-11T11:36:25;8.45;;;6.65;;
41061;SDS011;26812;42.662;23.352;2022-11-11T11:38:50;8.10;;;6.15;;
41061;SDS011;26812;42.662;23.352;2022-11-11T11:41:16;6.93;;;6.22;;
41061;SDS011;26812;42.662;23.352;2022-11-11T11:43:45;9.70;;;5.82;;
41061;SDS011;26812;42.662;23.352;2022-11-11T11:49:23;6.60;;;5.13;;
41061;SDS011;26812;42.662;23.352;2022-11-11T11:52:15;7.15;;;5.55;;
41061;SDS011;26812;42.662;23.352;2022-11-11T11:57:32;7.70;;;5.78;;
41061;SDS011;26812;42.662;23.352;2022-11-11T12:00:04;6.85;;;5.05;;
41061;SDS011;26812;42.662;23.352;2022-11-11T12:05:41;9.07;;;6.95;;
41061;SDS011;26812;42.662;23.352;2022-11-11T12:08:16;7.88;;;6.20;;
41061;SDS011;26812;42.662;23.352;2022-11-11T12:10:59;9.48;;;5.28;;
41061;SDS011;26812;42.662;23.352;2022-11-11T12:18:58;9.23;;;5.55;;
41061;SDS011;26812;42.662;23.352;2022-11-11T12:21:39;8.18;;;5.85;;
41061;SDS011;26812;42.662;23.352;2022-11-11T12:30:26;9.57;;;5.82;;
41061;SDS011;26812;42.662;23.352;2022-11-11T12:38:01;7.25;;;5.40;;
41061;SDS011;26812;42.662;23.352;2022-11-11T13:05:26;8.13;;;5.25;;
41061;SDS011;26812;42.662;23.352;2022-11-11T13:11:15;8.20;;;5.80;;
41061;SDS011;26812;42.662;23.352;2022-11-11T13:16:09;8.90;;;5.28;;
41061;SDS011;26812;42.662;23.352;2022-11-11T13:18:46;11.63;;;5.95;;
41061;SDS011;26812;42.662;23.352;2022-11-11T13:21:13;7.88;;;5.47;;
41061;SDS011;26812;42.662;23.352;2022-11-11T13:23:42;11.82;;;6.10;;
41061;SDS011;26812;42.662;23.352;2022-11-11T13:26:14;5.95;;;5.03;;
41061;SDS011;26812;42.662;23.352;2022-11-11T13:28:49;7.00;;;5.18;;
41061;SDS011;26812;42.662;23.352;2022-11-11T13:31:34;7.47;;;5.18;;
41061;SDS011;26812;42.662;23.352;2022-11-11T13:34:08;7.10;;;5.50;;
41061;SDS011;26812;42.662;23.352;2022-11-11T13:36:54;9.82;;;6.70;;
41061;SDS011;26812;42.662;23.352;2022-11-11T13:41:56;7.70;;;5.78;;
41061;SDS011;26812;42.662;23.352;2022-11-11T13:44:24;11.07;;;5.75;;
41061;SDS011;26812;42.662;23.352;2022-11-11T13:47:03;10.45;;;7.03;;
41061;SDS011;26812;42.662;23.352;2022-11-11T13:49:35;8.48;;;6.25;;
41061;SDS011;26812;42.662;23.352;2022-11-11T13:52:18;7.45;;;5.40;;
41061;SDS011;26812;42.662;23.352;2022-11-11T13:54:49;9.25;;;5.88;;
41061;SDS011;26812;42.662;23.352;2022-11-11T13:57:23;7.82;;;5.47;;
41061;SDS011;26812;42.662;23.352;2022-11-11T14:18:01;7.45;;;6.13;;
41061;SDS011;26812;42.662;23.352;2022-11-11T14:20:35;12.02;;;6.60;;
41061;SDS011;26812;42.662;23.352;2022-11-11T14:28:49;10.32;;;6.63;;
41061;SDS011;26812;42.662;23.352;2022-11-11T14:34:05;11.48;;;7.30;;
41061;SDS011;26812;42.662;23.352;2022-11-11T14:36:41;13.18;;;7.30;;
41061;SDS011;26812;42.662;23.352;2022-11-11T14:39:40;12.52;;;7.40;;
41061;SDS011;26812;42.662;23.352;2022-11-11T14:47:48;13.38;;;7.70;;
41061;SDS011;26812;42.662;23.352;2022-11-11T14:52:54;11.40;;;8.50;;
41061;SDS011;26812;42.662;23.352;2022-11-11T14:55:28;10.50;;;6.90;;
41061;SDS011;26812;42.662;23.352;2022-11-11T15:00:56;10.10;;;6.78;;
41061;SDS011;26812;42.662;23.352;2022-11-11T15:03:30;13.02;;;7.30;;
41061;SDS011;26812;42.662;23.352;2022-11-11T15:09:14;12.32;;;8.60;;
41061;SDS011;26812;42.662;23.352;2022-11-11T15:14:27;15.80;;;10.95;;
41061;SDS011;26812;42.662;23.352;2022-11-11T15:17:08;16.88;;;10.43;;
41061;SDS011;26812;42.662;23.352;2022-11-11T15:36:23;19.45;;;13.75;;
41061;SDS011;26812;42.662;23.352;2022-11-11T15:38:57;18.77;;;12.40;;
41061;SDS011;26812;42.662;23.352;2022-11-11T15:41:28;16.65;;;9.68;;
41061;SDS011;26812;42.662;23.352;2022-11-11T15:44:01;12.45;;;7.88;;
41061;SDS011;26812;42.662;23.352;2022-11-11T15:46:27;13.60;;;10.25;;
41061;SDS011;26812;42.662;23.352;2022-11-11T15:48:55;16.52;;;10.60;;
41061;SDS011;26812;42.662;23.352;2022-11-11T15:53:45;18.33;;;11.00;;
41061;SDS011;26812;42.662;23.352;2022-11-11T15:56:12;16.25;;;9.27;;
41061;SDS011;26812;42.662;23.352;2022-11-11T15:58:52;15.65;;;10.50;;
41061;SDS011;26812;42.662;23.352;2022-11-11T16:01:17;15.57;;;9.25;;
41061;SDS011;26812;42.662;23.352;2022-11-11T16:03:49;17.15;;;9.02;;
41061;SDS011;26812;42.662;23.352;2022-11-11T16:06:15;17.00;;;9.43;;
41061;SDS011;26812;42.662;23.352;2022-11-11T16:08:47;18.02;;;9.77;;
41061;SDS011;26812;42.662;23.352;2022-11-11T16:11:15;13.65;;;9.82;;
41061;SDS011;26812;42.662;23.352;2022-11-11T16:13:44;15.85;;;10.00;;
41061;SDS011;26812;42.662;23.352;2022-11-11T16:16:14;19.25;;;11.60;;
41061;SDS011;26812;42.662;23.352;2022-11-11T16:21:20;16.45;;;10.30;;
41061;SDS011;26812;42.662;23.352;2022-11-11T16:24:02;18.83;;;11.57;;
41061;SDS011;26812;42.662;23.352;2022-11-11T16:26:33;18.40;;;11.00;;
41061;SDS011;26812;42.662;23.352;2022-11-11T16:28:59;19.75;;;10.70;;
41061;SDS011;26812;42.662;23.352;2022-11-11T16:39:30;24.15;;;12.43;;
41061;SDS011;26812;42.662;23.352;2022-11-11T16:41:56;20.20;;;11.38;;
41061;SDS011;26812;42.662;23.352;2022-11-11T16:44:37;19.00;;;12.70;;
41061;SDS011;26812;42.662;23.352;2022-11-11T16:47:51;20.42;;;12.45;;
41061;SDS011;26812;42.662;23.352;2022-11-11T16:52:47;20.88;;;12.18;;
41061;SDS011;26812;42.662;23.352;2022-11-11T16:55:18;21.55;;;12.55;;
41061;SDS011;26812;42.662;23.352;2022-11-11T16:57:47;21.42;;;12.45;;
41061;SDS011;26812;42.662;23.352;2022-11-11T17:00:14;23.30;;;12.23;;
41061;SDS011;26812;42.662;23.352;2022-11-11T17:02:45;20.70;;;12.82;;
41061;SDS011;26812;42.662;23.352;2022-11-11T17:05:11;20.08;;;11.68;;
41061;SDS011;26812;42.662;23.352;2022-11-11T17:07:38;18.70;;;12.07;;
41061;SDS011;26812;42.662;23.352;2022-11-11T17:12:42;19.80;;;11.98;;
41061;SDS011;26812;42.662;23.352;2022-11-11T17:15:09;21.15;;;12.52;;
41061;SDS011;26812;42.662;23.352;2022-11-11T17:17:39;20.70;;;12.60;;
41061;SDS011;26812;42.662;23.352;2022-11-11T17:22:46;19.92;;;12.27;;
41061;SDS011;26812;42.662;23.352;2022-11-11T17:25:16;21.75;;;13.15;;
41061;SDS011;26812;42.662;23.352;2022-11-11T17:27:42;23.85;;;12.57;;
41061;SDS011;26812;42.662;23.352;2022-11-11T17:30:09;20.92;;;12.10;;
41061;SDS011;26812;42.662;23.352;2022-11-11T17:32:35;19.77;;;12.15;;
41061;SDS011;26812;42.662;23.352;2022-11-11T17:35:01;21.25;;;11.82;;
41061;SDS011;26812;42.662;23.352;2022-11-11T17:37:26;20.65;;;12.25;;
41061;SDS011;26812;42.662;23.352;2022-11-11T17:39:51;21.70;;;13.18;;